Time;durP1;ratioP1;P1;durP2;ratioP2;P2;SDS_P1;SDS_P2;PMS_P1;PMS_P2;Temp;Humidity;BMP_temperature;BMP_pressure;BME280_temperature;BME280_humidity;BME280_pressure;Samples;Min_cycle;Max_cycle;Signal;HPM_P1;HPM_P2
2021/09/30 00:00:11;;;;;;;12.50;7.63;;;;;;;14.88;98.32;97845.66;5000643;28;20056;-62
2021/09/30 00:02:38;;;;;;;16.60;7.70;;;;;;;14.86;98.41;97845.25;5000730;28;20064;-62
2021/09/30 00:05:07;;;;;;;9.30;7.20;;;;;;;14.89;97.73;97835.31;5000839;28;20061;-61
2021/09/30 00:07:34;;;;;;;12.20;7.35;;;;;;;14.85;97.66;97828.88;4999088;28;20058;-61
2021/09/30 00:10:02;;;;;;;13.10;7.10;;;;;;;14.69;97.85;97794.81;4999140;28;20068;-65
2021/09/30 00:12:34;;;;;;;9.38;6.82;;;;;;;14.97;98.36;97842.56;5000604;28;20149;-62
2021/09/30 00:15:06;;;;;;;13.53;7.50;;;;;;;14.72;96.92;97785.66;4999681;28;20050;-61
2021/09/30 00:34:20;;;;;;;12.93;7.95;;;;;;;14.79;100.00;97847.94;5003825;28;20065;-62
2021/09/30 00:50:19;;;;;;;16.52;9.50;;;;;;;14.76;100.00;97836.75;4993721;28;20073;-64
2021/09/30 00:53:11;;;;;;;18.92;9.80;;;;;;;14.32;100.00;97766.81;5001820;28;20225;-63
2021/09/30 02:58:59;;;;;;;19.00;8.13;;;;;;;14.25;100.00;97816.09;5001485;28;20054;-61
2021/09/30 03:01:28;;;;;;;10.98;7.90;;;;;;;14.15;100.00;97799.97;5001302;28;20058;-61
2021/09/30 03:03:56;;;;;;;13.55;8.40;;;;;;;13.64;100.00;97741.88;4999977;28;20149;-63
2021/09/30 03:06:26;;;;;;;11.15;7.72;;;;;;;14.19;100.00;97817.56;5001953;28;20053;-62
2021/09/30 03:08:59;;;;;;;13.88;8.52;;;;;;;14.27;100.00;97816.50;5000101;28;20539;-62
2021/09/30 03:11:29;;;;;;;16.25;8.63;;;;;;;14.31;100.00;97825.72;5001008;28;20064;-61
2021/09/30 03:13:58;;;;;;;17.48;9.07;;;;;;;14.37;99.24;97824.25;5001192;28;20050;-61
2021/09/30 03:18:59;;;;;;;14.68;8.27;;;;;;;14.36;99.40;97825.41;5001195;28;20424;-61
2021/09/30 03:24:16;;;;;;;13.43;8.98;;;;;;;13.65;98.53;97726.81;5001864;28;20067;-61
2021/09/30 03:26:47;;;;;;;11.80;8.63;;;;;;;14.09;100.00;97823.75;5001381;28;20239;-61
2021/09/30 03:29:15;;;;;;;17.52;8.88;;;;;;;13.76;100.00;97759.56;4999536;28;20062;-62
2021/09/30 03:31:44;;;;;;;15.18;8.52;;;;;;;14.20;100.00;97819.16;4999494;28;20052;-61
2021/09/30 03:34:11;;;;;;;14.23;9.07;;;;;;;14.24;98.96;97808.88;5001037;28;20054;-61
2021/09/30 03:36:38;;;;;;;13.20;8.13;;;;;;;14.28;99.65;97826.47;5001041;28;20050;-63
2021/09/30 03:39:12;;;;;;;15.35;8.10;;;;;;;14.25;99.26;97824.44;5001335;28;20449;-62
2021/09/30 03:41:42;;;;;;;10.23;7.90;;;;;;;14.30;98.43;97826.91;5000919;28;20057;-62
2021/09/30 03:44:12;;;;;;;12.80;8.40;;;;;;;14.24;98.55;97828.38;4999361;28;20070;-61
2021/09/30 03:46:39;;;;;;;14.20;8.32;;;;;;;14.23;98.64;97835.13;5001017;28;20064;-62
2021/09/30 03:49:11;;;;;;;17.65;10.50;;;;;;;14.32;98.37;97844.06;4999452;28;20523;-61
2021/09/30 03:59:28;;;;;;;12.00;9.05;;;;;;;14.24;99.26;97848.72;5004719;28;20058;-62
2021/09/30 04:02:00;;;;;;;19.80;9.25;;;;;;;14.24;99.91;97842.31;5003752;28;20053;-63
2021/09/30 04:04:33;;;;;;;18.98;10.48;;;;;;;13.87;98.45;97810.66;5003857;28;20162;-62
2021/09/30 04:07:05;;;;;;;10.57;7.00;;;;;;;13.60;100.00;97846.81;5004041;28;20049;-61
2021/09/30 04:09:36;;;;;;;13.68;8.82;;;;;;;13.30;100.00;97790.22;5002374;28;20049;-61
2021/09/30 04:12:05;;;;;;;14.65;8.88;;;;;;;13.31;100.00;97853.03;5002562;28;20057;-61
2021/09/30 04:14:32;;;;;;;17.05;9.05;;;;;;;13.26;100.00;97841.41;5002728;28;20058;-60
2021/09/30 04:16:59;;;;;;;16.83;9.57;;;;;;;13.14;100.00;97810.94;5004076;28;20056;-61
2021/09/30 04:19:26;;;;;;;16.80;9.48;;;;;;;13.21;100.00;97856.44;5003550;28;20435;-64
2021/09/30 04:21:54;;;;;;;15.40;10.45;;;;;;;13.32;100.00;97854.66;5002290;28;20075;-62
2021/09/30 04:24:22;;;;;;;14.30;9.25;;;;;;;13.31;100.00;97832.72;5002260;28;20164;-63
2021/09/30 04:26:52;;;;;;;18.52;9.10;;;;;;;13.33;100.00;97814.50;5003657;28;20545;-61
2021/09/30 04:29:19;;;;;;;16.65;8.80;;;;;;;13.59;100.00;97861.91;5004039;28;20042;-61
2021/09/30 04:31:46;;;;;;;20.48;9.00;;;;;;;13.61;100.00;97859.56;5001966;28;20065;-60
2021/09/30 04:34:13;;;;;;;15.80;8.93;;;;;;;13.21;100.00;97838.91;5004074;28;20064;-61
2021/09/30 04:36:41;;;;;;;36.20;17.55;;;;;;;13.20;100.00;97865.91;5002089;28;20064;-60
2021/09/30 04:39:08;;;;;;;42.20;21.58;;;;;;;13.10;100.00;97818.44;5002177;28;20456;-62
2021/09/30 04:41:35;;;;;;;12.13;9.00;;;;;;;13.01;100.00;97845.69;5003618;28;20050;-61
2021/09/30 04:44:02;;;;;;;13.93;9.95;;;;;;;12.97;100.00;97862.25;5001822;28;20057;-62
2021/09/30 04:46:28;;;;;;;19.42;11.15;;;;;;;12.53;100.00;97808.09;5002976;28;20061;-62
2021/09/30 04:48:55;;;;;;;23.55;13.35;;;;;;;13.03;100.00;97860.81;5003814;28;20146;-61
2021/09/30 04:51:22;;;;;;;20.05;10.25;;;;;;;13.34;100.00;97866.19;5001843;28;20057;-62
2021/09/30 04:53:48;;;;;;;14.55;9.48;;;;;;;13.36;100.00;97847.16;5003453;28;20057;-64
2021/09/30 04:56:16;;;;;;;15.80;10.95;;;;;;;13.40;100.00;97834.09;5003305;28;20499;-61
2021/09/30 04:58:43;;;;;;;16.23;9.60;;;;;;;13.79;100.00;97867.41;5001333;28;20512;-61
2021/09/30 05:01:09;;;;;;;15.02;9.57;;;;;;;13.44;100.00;97809.94;5003015;28;20062;-62
2021/09/30 05:03:37;;;;;;;13.80;9.38;;;;;;;13.73;100.00;97822.38;5003272;28;20053;-62
2021/09/30 05:06:03;;;;;;;11.85;8.45;;;;;;;14.30;100.00;97868.72;5002667;28;20061;-63
2021/09/30 05:08:33;;;;;;;19.02;8.48;;;;;;;14.17;99.19;97831.06;5003250;28;20053;-62
2021/09/30 05:11:03;;;;;;;22.15;10.70;;;;;;;14.49;98.97;97868.63;5003281;28;20057;-62
2021/09/30 05:13:43;;;;;;;19.55;10.10;;;;;;;14.56;98.26;97877.06;5001762;28;20911;-62
2021/09/30 05:16:12;;;;;;;14.30;8.27;;;;;;;14.48;96.41;97892.91;5001705;28;20050;-63
2021/09/30 05:18:44;;;;;;;10.95;7.60;;;;;;;14.66;97.52;97887.59;5003018;28;20081;-64
2021/09/30 05:21:11;;;;;;;16.50;8.50;;;;;;;14.73;97.00;97887.69;5003283;28;20057;-64
2021/09/30 05:23:38;;;;;;;13.85;8.13;;;;;;;14.75;97.11;97886.13;5003131;28;20058;-61
2021/09/30 05:26:04;;;;;;;22.67;8.75;;;;;;;14.44;99.14;97892.06;5002749;28;20056;-62
2021/09/30 05:28:31;;;;;;;14.70;7.50;;;;;;;14.11;98.24;97802.72;5002773;28;20050;-62
2021/09/30 05:31:00;;;;;;;12.75;9.20;;;;;;;14.88;96.15;97895.88;5001098;28;20126;-62
2021/09/30 05:33:27;;;;;;;14.05;9.27;;;;;;;14.87;94.45;97854.41;5002741;28;20485;-62
2021/09/30 05:35:55;;;;;;;12.02;8.68;;;;;;;15.29;93.21;97894.03;5002576;28;20050;-62
2021/09/30 05:38:22;;;;;;;19.20;9.68;;;;;;;15.41;91.84;97888.22;5002783;28;20535;-62
2021/09/30 05:40:52;;;;;;;23.38;11.48;;;;;;;15.45;90.76;97868.69;5002380;28;20060;-62
2021/09/30 05:43:24;;;;;;;20.45;9.07;;;;;;;15.23;89.16;97820.19;5002724;28;20165;-61
2021/09/30 05:45:56;;;;;;;23.17;10.25;;;;;;;15.85;88.12;97894.69;5001260;28;20066;-62
2021/09/30 05:48:27;;;;;;;20.08;10.98;;;;;;;15.91;88.08;97904.34;5000923;28;20054;-60
2021/09/30 05:50:54;;;;;;;19.58;10.40;;;;;;;15.96;86.87;97894.78;5001892;28;20062;-62
2021/09/30 05:53:21;;;;;;;19.52;10.35;;;;;;;15.81;87.41;97865.91;5001818;28;20050;-62
2021/09/30 05:55:48;;;;;;;18.77;10.68;;;;;;;15.97;85.92;97863.66;5001964;28;20081;-64
2021/09/30 05:58:16;;;;;;;18.88;9.90;;;;;;;16.38;86.40;97892.34;5002319;28;20531;-61
2021/09/30 06:16:14;;;;;;;17.10;10.15;;;;;;;16.98;79.00;97895.59;5002281;28;20068;-62
2021/09/30 06:18:42;;;;;;;14.93;9.93;;;;;;;17.01;77.86;97883.63;5000159;28;20403;-62
2021/09/30 06:21:09;;;;;;;17.58;10.40;;;;;;;16.76;76.72;97835.09;5000033;28;20053;-62
2021/09/30 06:23:35;;;;;;;14.30;9.25;;;;;;;17.16;75.53;97879.69;5000248;28;20471;-61
2021/09/30 06:26:02;;;;;;;19.88;9.27;;;;;;;17.06;76.02;97886.03;5001256;28;20052;-65
2021/09/30 06:28:29;;;;;;;17.83;11.15;;;;;;;17.50;74.90;97939.88;4999938;28;20525;-62
2021/09/30 06:30:56;;;;;;;12.43;9.30;;;;;;;17.61;74.08;97884.69;5000089;28;20054;-62
2021/09/30 06:33:24;;;;;;;19.88;9.60;;;;;;;17.72;72.03;97902.34;5001791;28;20546;-62
2021/09/30 06:35:51;;;;;;;16.75;8.43;;;;;;;17.67;70.27;97906.31;5001383;28;20058;-61
2021/09/30 06:38:37;;;;;;;13.43;7.90;;;;;;;17.64;71.11;97883.91;5001869;28;20053;-61
2021/09/30 06:41:05;;;;;;;16.05;8.20;;;;;;;17.86;69.55;97908.78;5001190;28;20525;-63
2021/09/30 06:43:32;;;;;;;15.90;8.75;;;;;;;18.12;68.38;97910.44;5001270;28;20053;-63
2021/09/30 06:45:59;;;;;;;11.48;7.95;;;;;;;17.79;67.22;97852.72;5001451;28;20050;-61
2021/09/30 06:48:27;;;;;;;10.02;6.82;;;;;;;17.96;65.99;97839.91;4999807;28;20085;-63
2021/09/30 06:50:55;;;;;;;13.05;8.02;;;;;;;17.60;66.52;97743.00;4998736;28;20087;-61
2021/09/30 06:53:22;;;;;;;14.15;7.63;;;;;;;18.78;64.37;97881.59;4999631;28;20050;-67
2021/09/30 06:55:48;;;;;;;17.70;8.70;;;;;;;17.04;64.82;97574.91;4999366;28;20119;-62
2021/09/30 06:58:15;;;;;;;9.98;6.55;;;;;;;18.56;64.83;97825.91;5000956;28;20054;-65
2021/09/30 07:00:42;;;;;;;12.30;6.82;;;;;;;18.21;64.39;97759.38;5000027;28;20042;-63
2021/09/30 07:03:09;;;;;;;11.25;6.60;;;;;;;18.76;65.33;97900.06;4998339;28;20057;-62
2021/09/30 07:05:36;;;;;;;15.18;7.00;;;;;;;18.95;65.91;97875.13;4996337;28;20081;-62
2021/09/30 07:08:06;;;;;;;11.30;6.90;;;;;;;19.21;64.66;97916.00;4997648;28;20076;-60
2021/09/30 07:10:32;;;;;;;12.38;6.15;;;;;;;19.05;64.96;97908.00;4998299;28;20046;-62
2021/09/30 07:12:59;;;;;;;13.57;6.60;;;;;;;19.09;63.49;97906.00;4998593;28;20069;-62
2021/09/30 07:15:26;;;;;;;16.45;7.25;;;;;;;18.66;64.14;97867.97;5006958;28;20090;-62
2021/09/30 07:17:53;;;;;;;12.07;6.00;;;;;;;17.53;61.69;97625.34;4999808;28;20080;-63
2021/09/30 07:20:19;;;;;;;12.02;7.47;;;;;;;19.41;60.66;97903.91;4999304;28;20046;-62
2021/09/30 07:22:46;;;;;;;28.30;15.13;;;;;;;19.41;60.77;97892.66;4998732;28;20050;-60
2021/09/30 07:25:13;;;;;;;15.70;7.70;;;;;;;19.13;57.23;97847.81;5000369;28;20056;-63
2021/09/30 07:27:40;;;;;;;12.70;6.63;;;;;;;19.24;55.68;97826.09;4999746;28;20058;-64
2021/09/30 07:30:07;;;;;;;26.02;12.38;;;;;;;19.19;54.54;97801.22;5079095;28;20054;-68
2021/09/30 07:32:34;;;;;;;20.17;10.10;;;;;;;19.52;56.97;97865.31;5022800;27;20056;-62
2021/09/30 07:35:02;;;;;;;30.75;15.95;;;;;;;19.43;56.65;97811.56;5007062;28;20443;-68
2021/09/30 07:37:29;;;;;;;12.27;5.93;;;;;;;19.25;55.96;97779.13;5006005;28;20056;-64
2021/09/30 07:39:55;;;;;;;13.73;6.22;;;;;;;19.81;56.67;97893.28;5004949;28;20077;-62
2021/09/30 07:42:24;;;;;;;13.88;5.72;;;;;;;19.51;55.60;97868.53;5006228;28;20128;-65
2021/09/30 07:44:51;;;;;;;11.27;6.03;;;;;;;19.36;56.44;97867.78;5006108;28;20504;-64
2021/09/30 07:47:18;;;;;;;10.13;5.45;;;;;;;19.65;56.68;97884.56;5006671;28;20046;-64
2021/09/30 07:49:44;;;;;;;12.52;5.47;;;;;;;19.32;56.12;97858.59;5007042;28;20148;-64
2021/09/30 07:52:11;;;;;;;42.20;24.35;;;;;;;19.32;57.13;97895.13;5005989;28;20062;-66
2021/09/30 07:54:38;;;;;;;12.68;6.20;;;;;;;19.00;56.62;97840.25;5007056;28;20064;-63
2021/09/30 07:57:05;;;;;;;13.02;7.40;;;;;;;17.90;57.56;97676.13;5004145;28;20068;-61
2021/09/30 07:59:31;;;;;;;11.15;4.93;;;;;;;18.67;56.70;97750.91;5006495;28;20104;-67
2021/09/30 08:01:58;;;;;;;14.07;7.00;;;;;;;18.76;57.25;97777.31;5004237;28;21020;-62
2021/09/30 08:04:25;;;;;;;15.43;7.40;;;;;;;18.87;56.66;97806.19;5007020;28;20057;-67
2021/09/30 08:06:52;;;;;;;16.83;9.32;;;;;;;19.57;57.67;97895.00;5004663;28;20432;-68
2021/09/30 08:09:19;;;;;;;18.42;6.18;;;;;;;19.24;56.85;97792.38;5006212;28;20061;-65
2021/09/30 08:11:50;;;;;;;14.68;6.45;;;;;;;20.06;55.75;97899.56;5004378;28;20049;-66
2021/09/30 08:14:17;;;;;;;7.22;4.70;;;;;;;20.11;55.17;97896.28;5006633;28;20530;-65
2021/09/30 08:16:44;;;;;;;5.97;4.50;;;;;;;20.05;53.80;97881.88;5005752;28;20057;-64
2021/09/30 08:19:10;;;;;;;8.38;5.40;;;;;;;20.15;55.84;97885.88;5005933;28;20566;-64
2021/09/30 08:21:44;;;;;;;11.85;7.00;;;;;;;18.41;55.42;97623.13;5003950;28;20614;-69
2021/09/30 08:24:15;;;;;;;156.40;92.80;;;;;;;19.95;55.31;97876.34;5006417;28;20054;-66
2021/09/30 08:26:43;;;;;;;46.30;26.77;;;;;;;19.88;53.60;97888.44;5037458;28;20046;-67
2021/09/30 08:29:10;;;;;;;42.63;21.15;;;;;;;19.20;54.79;97802.84;5005061;28;20054;-65
2021/09/30 08:31:37;;;;;;;27.50;12.43;;;;;;;19.17;54.40;97806.44;5004511;28;20516;-64
2021/09/30 08:34:04;;;;;;;45.83;25.95;;;;;;;18.98;55.72;97778.88;5003606;28;20499;-63
2021/09/30 08:36:32;;;;;;;40.83;22.10;;;;;;;18.76;55.42;97766.09;5005853;28;20057;-71
2021/09/30 08:38:59;;;;;;;26.52;15.18;;;;;;;19.71;55.61;97889.34;5004471;28;20068;-62
2021/09/30 08:41:26;;;;;;;37.45;20.40;;;;;;;19.81;55.54;97890.47;5036061;28;20527;-60
2021/09/30 08:43:53;;;;;;;18.92;10.60;;;;;;;19.57;55.57;97882.97;5002586;28;20072;-59
2021/09/30 08:46:20;;;;;;;19.38;9.55;;;;;;;19.21;55.92;97855.00;5002880;28;20076;-67
2021/09/30 08:48:47;;;;;;;8.77;5.05;;;;;;;18.68;55.13;97814.25;5001989;28;20417;-60
2021/09/30 08:51:15;;;;;;;18.38;8.85;;;;;;;18.08;59.63;97864.78;5006443;27;20065;-68
2021/09/30 08:53:43;;;;;;;12.45;7.45;;;;;;;18.98;58.18;97885.56;4988177;28;20049;-61
2021/09/30 08:56:11;;;;;;;14.23;7.75;;;;;;;19.21;55.75;97838.13;5001897;28;20054;-60
2021/09/30 08:58:38;;;;;;;12.77;6.78;;;;;;;19.14;55.68;97882.31;5001519;28;20046;-61
2021/09/30 09:01:08;;;;;;;45.92;19.40;;;;;;;19.39;57.97;97875.41;5000685;28;20181;-60
2021/09/30 09:03:38;;;;;;;8.35;5.93;;;;;;;19.86;55.30;97887.22;5001138;28;20054;-61
2021/09/30 09:06:08;;;;;;;14.48;5.38;;;;;;;19.89;53.90;97818.91;5002246;28;20074;-71
2021/09/30 09:08:35;;;;;;;12.73;5.65;;;;;;;20.48;52.20;97871.13;4998162;28;20502;-64
2021/09/30 09:11:05;;;;;;;9.40;5.72;;;;;;;19.35;54.02;97877.44;4999446;28;20504;-70
2021/09/30 09:13:32;;;;;;;23.90;10.23;;;;;;;19.72;54.36;97873.25;4999790;28;20492;-62
2021/09/30 09:16:04;;;;;;;31.45;14.45;;;;;;;20.16;51.96;97877.00;5002440;28;20517;-69
2021/09/30 09:18:39;;;;;;;15.93;7.90;;;;;;;20.09;50.22;97836.84;5000725;28;20530;-70
2021/09/30 09:21:15;;;;;;;12.80;5.75;;;;;;;20.12;49.21;97797.41;5001590;28;20050;-70
2021/09/30 09:23:51;;;;;;;27.00;10.93;;;;;;;20.93;48.89;97875.50;5002557;28;20511;-69
2021/09/30 09:26:20;;;;;;;11.85;6.32;;;;;;;20.75;48.31;97816.53;5002511;28;20061;-70
2021/09/30 09:29:04;;;;;;;27.92;12.77;;;;;;;20.43;50.60;97874.38;4997388;28;20064;-70
2021/09/30 09:31:36;;;;;;;14.77;8.20;;;;;;;19.15;49.98;97648.78;4983324;28;20149;-69
2021/09/30 09:34:33;;;;;;;8.35;4.97;;;;;;;20.89;48.44;97866.31;4982888;28;20062;-70
2021/09/30 09:39:58;;;;;;;6.22;5.10;;;;;;;21.59;47.60;97862.66;5002757;28;20133;-63
2021/09/30 09:42:30;;;;;;;12.13;6.10;;;;;;;21.89;47.60;97865.50;4999884;28;20570;-66
2021/09/30 09:45:07;;;;;;;14.57;5.67;;;;;;;21.89;46.73;97842.94;5002285;28;20451;-61
2021/09/30 09:47:37;;;;;;;19.25;8.68;;;;;;;21.47;45.82;97815.31;4993438;28;20046;-62
2021/09/30 09:50:18;;;;;;;12.05;7.53;;;;;;;21.56;46.29;97860.69;4996565;28;20077;-65
2021/09/30 09:52:50;;;;;;;12.15;4.65;;;;;;;21.78;45.24;97859.22;4999741;28;20486;-65
2021/09/30 09:55:39;;;;;;;6.65;4.35;;;;;;;21.50;44.26;97793.94;5001771;28;20054;-68
2021/09/30 09:58:07;;;;;;;14.05;10.98;;;;;;;22.05;44.89;97868.50;5001174;28;20150;-69
2021/09/30 10:01:01;;;;;;;5.10;4.13;;;;;;;22.40;43.55;97845.34;5001615;28;20514;-70
2021/09/30 10:03:32;;;;;;;70.63;30.88;;;;;;;22.21;43.09;97831.97;5001180;28;20057;-62
2021/09/30 10:06:05;;;;;;;28.55;13.65;;;;;;;22.26;42.79;97854.06;5002506;28;20371;-61
2021/09/30 10:08:33;;;;;;;21.83;13.05;;;;;;;21.90;44.37;97841.72;5001846;28;20054;-66
2021/09/30 10:11:00;;;;;;;13.45;7.60;;;;;;;21.62;43.12;97838.47;5001783;28;20050;-62
2021/09/30 10:13:31;;;;;;;17.23;6.53;;;;;;;19.32;43.96;97513.00;5001395;28;20079;-63
2021/09/30 10:15:58;;;;;;;17.10;6.60;;;;;;;21.51;44.85;97832.19;5000435;28;20056;-63
2021/09/30 10:18:27;;;;;;;24.95;13.73;;;;;;;21.07;43.55;97832.34;5001878;28;20436;-62
2021/09/30 10:20:58;;;;;;;13.63;5.75;;;;;;;20.40;43.55;97835.81;5000401;28;20052;-70
2021/09/30 10:23:31;;;;;;;16.25;8.43;;;;;;;20.96;42.21;97829.63;5000158;28;20136;-70
2021/09/30 10:26:10;;;;;;;10.23;6.30;;;;;;;21.30;41.57;97836.06;5000506;28;20784;-72
2021/09/30 10:28:44;;;;;;;8.45;4.32;;;;;;;21.88;41.73;97835.72;5001297;28;20060;-70
2021/09/30 10:31:36;;;;;;;10.82;3.85;;;;;;;21.95;41.82;97829.97;5000320;28;20057;-70
2021/09/30 10:34:09;;;;;;;6.22;3.13;;;;;;;22.14;40.03;97831.28;5001006;28;20132;-70
2021/09/30 10:36:44;;;;;;;8.73;6.15;;;;;;;21.78;41.67;97825.38;5000564;28;20050;-68
2021/09/30 10:39:17;;;;;;;6.60;4.05;;;;;;;20.14;42.04;97794.25;4995502;28;20054;-67
2021/09/30 10:41:44;;;;;;;7.67;4.80;;;;;;;20.37;43.19;97828.19;5001161;28;20050;-61
2021/09/30 10:44:16;;;;;;;7.82;4.43;;;;;;;20.30;43.29;97809.34;5000948;28;20073;-71
2021/09/30 10:46:45;;;;;;;6.97;3.97;;;;;;;19.68;43.79;97827.50;5001348;28;20149;-70
2021/09/30 10:49:35;;;;;;;7.43;3.97;;;;;;;20.27;43.28;97820.63;5001243;28;20585;-61
2021/09/30 10:52:27;;;;;;;10.25;5.85;;;;;;;20.60;43.27;97774.88;4999146;28;20148;-69
2021/09/30 10:54:59;;;;;;;19.35;12.15;;;;;;;21.25;43.28;97814.00;5000510;28;20046;-65
2021/09/30 10:57:32;;;;;;;6.50;4.57;;;;;;;19.80;45.80;97818.56;5000427;28;20050;-63
2021/09/30 11:00:00;;;;;;;10.57;7.25;;;;;;;18.92;43.71;97620.41;5000701;28;20072;-67
2021/09/30 11:03:01;;;;;;;20.65;13.70;;;;;;;20.24;44.62;97818.66;5001076;28;20056;-69
2021/09/30 11:05:34;;;;;;;19.92;10.30;;;;;;;20.29;43.59;97778.81;5000377;28;20053;-62
2021/09/30 11:08:20;;;;;;;18.25;10.23;;;;;;;20.97;43.46;97814.34;5001099;28;20049;-68
2021/09/30 11:11:11;;;;;;;41.60;24.60;;;;;;;21.26;43.82;97815.56;5000783;28;20540;-71
2021/09/30 11:14:07;;;;;;;13.55;8.25;;;;;;;18.98;42.67;97509.28;4998270;28;20172;-70
2021/09/30 11:16:37;;;;;;;15.98;9.07;;;;;;;21.45;43.07;97806.47;4999634;28;20158;-62
2021/09/30 11:19:05;;;;;;;41.17;22.35;;;;;;;21.81;42.83;97806.81;5000221;28;20049;-67
2021/09/30 11:21:32;;;;;;;15.48;9.15;;;;;;;20.65;43.63;97802.59;4998830;28;20064;-67
2021/09/30 11:24:05;;;;;;;7.25;5.30;;;;;;;20.41;43.22;97801.63;5000972;28;20064;-73
2021/09/30 11:26:51;;;;;;;17.33;9.98;;;;;;;20.50;44.00;97806.78;5001464;28;20058;-61
2021/09/30 11:29:26;;;;;;;17.00;10.73;;;;;;;20.93;42.41;97807.91;4999490;28;20070;-63
2021/09/30 11:31:53;;;;;;;12.25;6.22;;;;;;;20.83;42.48;97803.22;4999886;28;20049;-64
2021/09/30 11:34:23;;;;;;;8.55;5.78;;;;;;;20.90;42.36;97803.09;4997194;28;20068;-69
2021/09/30 11:36:51;;;;;;;8.95;5.50;;;;;;;20.91;42.30;97827.25;5001101;28;20353;-62
2021/09/30 11:39:18;;;;;;;8.40;4.97;;;;;;;20.92;41.97;97783.78;4999113;28;20053;-71
2021/09/30 11:41:47;;;;;;;8.23;4.88;;;;;;;21.07;41.54;97804.94;4999197;28;20056;-66
2021/09/30 11:44:19;;;;;;;8.95;5.25;;;;;;;21.25;40.92;97797.09;5000693;28;20057;-69
2021/09/30 11:46:54;;;;;;;10.07;4.63;;;;;;;20.44;40.85;97673.31;5000624;28;20052;-63
2021/09/30 11:49:21;;;;;;;9.88;6.50;;;;;;;21.14;42.27;97768.25;5000013;28;20060;-64
2021/09/30 11:51:54;;;;;;;31.23;12.50;;;;;;;19.46;41.58;97636.50;5000422;28;20057;-66
2021/09/30 11:54:23;;;;;;;7.50;5.17;;;;;;;20.45;42.41;97757.38;5000249;28;20057;-63
2021/09/30 11:56:55;;;;;;;16.30;6.63;;;;;;;20.82;41.79;97712.28;4999950;28;20050;-70
2021/09/30 11:59:24;;;;;;;8.63;5.60;;;;;;;21.49;41.30;97783.88;5000150;28;20548;-65
2021/09/30 12:01:54;;;;;;;6.57;4.40;;;;;;;21.54;38.55;97789.84;4998388;28;20108;-62
2021/09/30 12:07:22;;;;;;;6.93;4.18;;;;;;;22.53;38.43;97755.19;4999927;28;20057;-64
2021/09/30 12:09:52;;;;;;;10.07;5.65;;;;;;;22.98;38.44;97775.31;5000976;28;20057;-73
2021/09/30 12:12:30;;;;;;;8.15;4.18;;;;;;;22.53;37.98;97752.38;4998128;28;20058;-74
2021/09/30 12:14:57;;;;;;;7.80;4.15;;;;;;;21.98;38.96;97752.94;5009414;28;20069;-67
2021/09/30 12:17:30;;;;;;;9.95;5.85;;;;;;;21.56;38.95;97730.97;5012293;28;20580;-64
2021/09/30 12:19:57;;;;;;;12.07;4.47;;;;;;;21.65;39.08;97697.44;5001798;28;20099;-61
2021/09/30 12:22:26;;;;;;;10.00;4.55;;;;;;;22.27;38.57;97773.00;5003609;28;20057;-71
2021/09/30 12:25:00;;;;;;;17.05;7.63;;;;;;;21.26;40.55;97784.56;5003916;28;20056;-61
2021/09/30 12:27:34;;;;;;;9.70;6.38;;;;;;;21.30;39.33;97743.06;5004234;28;20686;-70
2021/09/30 12:30:11;;;;;;;7.78;5.10;;;;;;;21.62;40.46;97777.25;5000942;28;20068;-67
2021/09/30 12:32:41;;;;;;;10.43;5.40;;;;;;;21.42;40.51;97739.66;4992258;28;20643;-69
2021/09/30 12:35:16;;;;;;;10.20;6.03;;;;;;;21.50;41.85;97769.34;5002987;28;20046;-69
2021/09/30 12:37:49;;;;;;;9.93;4.72;;;;;;;20.77;42.44;97766.25;5003034;28;20054;-69
2021/09/30 12:40:26;;;;;;;7.18;4.60;;;;;;;20.04;43.10;97773.41;5001910;28;20726;-68
2021/09/30 12:43:03;;;;;;;8.15;4.50;;;;;;;20.44;43.09;97771.81;5003354;28;20061;-69
2021/09/30 12:45:33;;;;;;;6.10;4.55;;;;;;;20.30;42.93;97763.53;5002728;28;20046;-69
2021/09/30 12:48:12;;;;;;;11.57;5.45;;;;;;;19.77;43.88;97769.59;4984305;28;20082;-70
2021/09/30 12:50:47;;;;;;;8.27;4.93;;;;;;;19.67;44.17;97764.84;5014207;28;20759;-69
2021/09/30 12:53:17;;;;;;;8.38;5.28;;;;;;;20.09;44.33;97769.34;4984164;28;20064;-67
2021/09/30 12:55:45;;;;;;;12.23;5.65;;;;;;;20.39;43.15;97766.69;4983480;28;20069;-69
2021/09/30 12:58:32;;;;;;;11.45;5.97;;;;;;;20.40;43.42;97768.25;4982282;28;20054;-68
2021/09/30 13:01:23;;;;;;;12.18;5.35;;;;;;;20.82;43.56;97762.16;4983029;28;20061;-70
2021/09/30 13:04:25;;;;;;;12.00;5.43;;;;;;;21.14;41.79;97768.25;4982187;28;20061;-70
2021/09/30 13:07:03;;;;;;;13.65;6.20;;;;;;;21.32;40.91;97740.63;4983570;28;20464;-71
2021/09/30 13:09:38;;;;;;;33.95;17.23;;;;;;;21.24;39.62;97716.59;4983758;28;20052;-69
2021/09/30 13:12:16;;;;;;;26.48;12.18;;;;;;;21.56;40.77;97762.00;4982074;28;20058;-73
2021/09/30 13:14:56;;;;;;;8.15;4.80;;;;;;;21.85;40.56;97757.56;4983510;28;20058;-70
2021/09/30 13:17:27;;;;;;;10.52;4.57;;;;;;;22.01;40.68;97759.72;4983317;28;20051;-69
2021/09/30 13:19:56;;;;;;;10.07;4.25;;;;;;;22.10;40.39;97763.59;4982886;28;20054;-70
2021/09/30 13:22:30;;;;;;;8.70;4.85;;;;;;;21.85;39.60;97768.84;4998027;28;20058;-71
2021/09/30 13:24:58;;;;;;;11.55;4.63;;;;;;;21.28;39.64;97697.59;5002927;28;20061;-70
2021/09/30 13:27:29;;;;;;;6.88;4.50;;;;;;;20.60;40.49;97665.09;5001786;28;20046;-71
2021/09/30 13:29:57;;;;;;;9.55;4.30;;;;;;;20.96;41.49;97745.91;5001283;28;20053;-71
2021/09/30 13:32:26;;;;;;;11.25;4.20;;;;;;;21.16;40.72;97706.63;5002322;28;20054;-69
2021/09/30 13:34:57;;;;;;;8.43;4.22;;;;;;;21.87;39.41;97743.84;5000757;28;20061;-71
2021/09/30 13:37:25;;;;;;;8.68;4.72;;;;;;;21.07;39.78;97678.16;5002694;28;20065;-72
2021/09/30 13:39:56;;;;;;;9.82;5.15;;;;;;;21.48;40.23;97698.47;5003161;28;20057;-71
2021/09/30 13:42:30;;;;;;;8.10;4.82;;;;;;;21.77;40.04;97739.16;5000721;28;20132;-70
2021/09/30 13:44:58;;;;;;;10.88;5.75;;;;;;;20.91;41.61;97742.75;5002672;28;20072;-71
2021/09/30 13:47:27;;;;;;;15.25;6.93;;;;;;;20.78;42.51;97734.06;5001343;28;20134;-70
2021/09/30 13:49:55;;;;;;;7.82;4.75;;;;;;;20.83;41.48;97701.81;5001099;28;20057;-71
2021/09/30 13:52:23;;;;;;;14.75;6.97;;;;;;;21.01;41.51;97736.19;5001636;28;20136;-71
2021/09/30 13:54:50;;;;;;;9.18;5.55;;;;;;;20.98;41.49;97731.41;5000984;28;20050;-70
2021/09/30 13:57:17;;;;;;;20.20;10.23;;;;;;;20.99;41.02;97716.13;5002479;28;20060;-71
2021/09/30 13:59:44;;;;;;;11.90;7.55;;;;;;;20.88;41.45;97732.34;5001086;28;20102;-69
2021/09/30 14:02:31;;;;;;;16.80;9.25;;;;;;;20.48;42.35;97691.78;5001775;28;20049;-71
2021/09/30 14:04:57;;;;;;;24.27;9.93;;;;;;;19.85;41.64;97675.53;5001666;28;20471;-71
2021/09/30 14:07:24;;;;;;;11.88;6.93;;;;;;;20.60;43.39;97727.00;5001645;28;20509;-71
2021/09/30 14:09:51;;;;;;;8.73;5.03;;;;;;;20.59;43.01;97719.81;5002153;28;20057;-69
2021/09/30 14:12:18;;;;;;;14.05;5.80;;;;;;;20.82;43.17;97746.06;5000588;28;20057;-70
2021/09/30 14:14:45;;;;;;;13.70;6.03;;;;;;;20.39;43.61;97730.09;5002738;28;20060;-71
2021/09/30 14:17:12;;;;;;;9.98;5.38;;;;;;;20.17;43.35;97709.78;5000866;28;20142;-70
2021/09/30 14:19:38;;;;;;;12.68;6.18;;;;;;;19.63;43.55;97729.53;5001581;28;20457;-71
2021/09/30 14:22:05;;;;;;;12.25;6.65;;;;;;;19.80;44.31;97734.22;4999868;28;20435;-67
2021/09/30 14:24:33;;;;;;;21.13;7.68;;;;;;;19.82;44.53;97737.41;5000244;28;20065;-68
2021/09/30 14:27:02;;;;;;;11.25;6.25;;;;;;;20.15;43.46;97731.13;5000089;28;20106;-67
2021/09/30 14:29:29;;;;;;;13.60;5.10;;;;;;;19.94;42.10;97666.59;5001677;28;20077;-68
2021/09/30 14:31:56;;;;;;;10.15;5.20;;;;;;;19.87;43.20;97725.72;5001839;28;20057;-68
2021/09/30 14:34:23;;;;;;;9.23;4.65;;;;;;;19.91;42.23;97668.25;5002108;28;20057;-69
2021/09/30 14:36:49;;;;;;;11.05;4.75;;;;;;;20.52;42.62;97726.31;5002018;28;20054;-68
2021/09/30 14:39:16;;;;;;;10.02;4.43;;;;;;;20.72;41.93;97758.25;5001369;28;20327;-68
2021/09/30 14:41:43;;;;;;;7.75;4.35;;;;;;;20.96;41.42;97722.56;5001270;28;20432;-68
2021/09/30 14:44:10;;;;;;;9.55;4.70;;;;;;;20.82;42.66;97722.72;5001689;28;20232;-67
2021/09/30 14:46:37;;;;;;;10.15;5.00;;;;;;;20.48;44.00;97719.13;5001353;28;20422;-68